Terminal Aerodrome Forecast
Issued by NWS

Home | Current Version | Previous Version | Text Only | Print | Product List | Glossary On
Versions: 1 2 3 4 5 6 7 8 9 10 11 12 13 14 15 16 17 18 19 20 21
738
FTUS41 KGYX 201731
TAFRKD
TAF
KRKD 201731Z 2018/2118 28015G24KT P6SM SCT050
     FM210000 28008KT P6SM FEW100
     FM210400 26004KT P6SM SKC
     FM211400 23012G20KT P6SM SKC
      AMD LTD TO CLD VIS AND WIND=

USA.gov is the U.S. government's official web portal to all federal, state and local government web resources and services.